createdAt,value
2018-09-24T00:00:02.642Z,0.00
2018-09-24T00:01:02.589Z,0.00
2018-09-24T00:02:02.593Z,0.00
2018-09-24T00:03:02.621Z,0.00
2018-09-24T00:04:02.642Z,0.00
2018-09-24T00:05:02.670Z,0.00
2018-09-24T00:06:02.696Z,0.00
2018-09-24T00:07:02.720Z,0.00
2018-09-24T00:08:02.744Z,0.00
2018-09-24T00:09:02.771Z,0.00
2018-09-24T00:10:02.796Z,0.00
2018-09-24T00:11:02.821Z,0.00
2018-09-24T00:12:02.847Z,0.00
2018-09-24T00:13:02.873Z,0.00
2018-09-24T00:14:02.899Z,0.00
2018-09-24T00:15:02.925Z,0.00
2018-09-24T00:16:02.947Z,0.00
2018-09-24T00:17:02.972Z,0.00
2018-09-24T00:18:02.996Z,0.00
2018-09-24T00:19:03.023Z,0.00
2018-09-24T00:20:03.048Z,0.00
2018-09-24T00:21:03.073Z,0.00
2018-09-24T00:22:03.099Z,0.00
2018-09-24T00:23:03.126Z,0.00
2018-09-24T00:24:03.148Z,0.00
2018-09-24T00:25:03.178Z,0.00
2018-09-24T00:26:03.203Z,0.00
2018-09-24T00:27:03.226Z,0.00
2018-09-24T00:28:03.251Z,0.00
2018-09-24T00:29:03.276Z,0.00
2018-09-24T00:30:03.303Z,0.00
2018-09-24T00:31:03.327Z,0.00
2018-09-24T00:32:03.352Z,0.00
2018-09-24T00:33:03.378Z,0.00
2018-09-24T00:34:03.406Z,0.00
2018-09-24T00:35:03.429Z,0.00
2018-09-24T00:36:03.453Z,0.00
2018-09-24T00:37:03.479Z,0.00
2018-09-24T00:38:03.504Z,0.00
2018-09-24T00:39:03.531Z,0.00
2018-09-24T00:40:03.556Z,0.00
2018-09-24T00:41:03.580Z,0.00
2018-09-24T00:42:03.609Z,0.00
2018-09-24T00:43:03.671Z,0.00
2018-09-24T00:44:03.661Z,0.00
2018-09-24T00:45:03.697Z,0.00
2018-09-24T00:46:03.728Z,0.00
2018-09-24T00:47:03.734Z,0.00
2018-09-24T00:48:03.757Z,0.00
2018-09-24T00:49:03.782Z,0.00
2018-09-24T00:50:03.810Z,0.00
2018-09-24T00:51:03.835Z,0.00
2018-09-24T00:52:03.858Z,0.00
2018-09-24T00:53:03.885Z,0.00
2018-09-24T00:54:03.909Z,0.00
2018-09-24T00:55:03.936Z,0.00
2018-09-24T00:56:03.961Z,0.00
2018-09-24T00:57:03.986Z,0.00
2018-09-24T00:58:04.012Z,0.00
2018-09-24T00:59:04.040Z,0.00
2018-09-24T01:00:04.061Z,0.00
2018-09-24T01:01:04.089Z,0.00
2018-09-24T01:02:04.113Z,0.00
2018-09-24T01:03:04.137Z,0.00
2018-09-24T01:04:04.167Z,0.00
2018-09-24T01:05:04.189Z,0.00
2018-09-24T01:06:04.218Z,0.00
2018-09-24T01:07:04.238Z,0.00
2018-09-24T01:08:04.265Z,0.00
2018-09-24T01:09:04.288Z,0.00
2018-09-24T01:10:04.314Z,0.00
2018-09-24T01:11:04.341Z,0.00
2018-09-24T01:12:04.366Z,0.00
2018-09-24T01:13:04.389Z,0.00
2018-09-24T01:14:04.418Z,0.00
2018-09-24T01:15:04.441Z,0.00
2018-09-24T01:16:04.466Z,0.00
2018-09-24T01:17:04.490Z,0.00
2018-09-24T01:18:04.518Z,0.00
2018-09-24T01:19:04.561Z,0.00
2018-09-24T01:20:04.584Z,0.00
2018-09-24T01:21:04.592Z,0.00
2018-09-24T01:22:04.617Z,0.00
2018-09-24T01:23:04.644Z,0.00
2018-09-24T01:24:04.669Z,0.00
2018-09-24T01:25:04.693Z,0.00
2018-09-24T01:26:04.718Z,0.00
2018-09-24T01:27:04.745Z,0.00
2018-09-24T01:28:04.770Z,0.00
2018-09-24T01:29:04.795Z,0.00
2018-09-24T01:30:04.835Z,0.00
2018-09-24T01:31:04.847Z,0.00
2018-09-24T01:32:04.871Z,0.00
2018-09-24T01:33:04.895Z,0.00
2018-09-24T01:34:04.922Z,0.00
2018-09-24T01:35:04.946Z,0.00
2018-09-24T01:36:04.978Z,0.00
2018-09-24T01:37:04.996Z,0.00
2018-09-24T01:38:05.024Z,0.00
2018-09-24T01:39:05.049Z,0.00
2018-09-24T01:40:05.078Z,0.00
2018-09-24T01:41:05.107Z,0.00
2018-09-24T01:42:05.122Z,0.00
2018-09-24T01:43:05.153Z,0.00
2018-09-24T01:44:05.172Z,0.00
2018-09-24T01:45:05.199Z,0.00
2018-09-24T01:46:05.223Z,0.00
2018-09-24T01:47:05.268Z,0.00
2018-09-24T01:48:05.273Z,0.00
2018-09-24T01:49:05.303Z,0.00
2018-09-24T01:50:05.327Z,0.00
2018-09-24T01:51:05.350Z,0.00
2018-09-24T01:52:05.374Z,0.00
2018-09-24T01:53:05.401Z,0.00
2018-09-24T01:54:05.429Z,0.00
2018-09-24T01:55:05.453Z,0.00
2018-09-24T01:56:05.478Z,0.00
2018-09-24T01:57:05.502Z,0.00
2018-09-24T01:58:05.527Z,0.00
2018-09-24T01:59:05.551Z,0.00
2018-09-24T02:00:05.582Z,0.00
2018-09-24T02:01:05.604Z,0.00
2018-09-24T02:02:05.627Z,0.00
2018-09-24T02:03:05.653Z,0.00
2018-09-24T02:04:05.678Z,0.00
2018-09-24T02:05:05.705Z,0.00
2018-09-24T02:06:05.728Z,0.00
2018-09-24T02:07:05.754Z,0.00
2018-09-24T02:08:05.779Z,0.00
2018-09-24T02:09:05.806Z,0.00
2018-09-24T02:10:05.831Z,0.00
2018-09-24T02:11:05.857Z,0.00
2018-09-24T02:12:05.882Z,0.00
2018-09-24T02:13:05.906Z,0.00
2018-09-24T02:14:05.930Z,0.00
2018-09-24T02:15:05.955Z,0.00
2018-09-24T02:16:05.979Z,0.00
2018-09-24T02:17:06.005Z,0.00
2018-09-24T02:18:06.033Z,0.00
2018-09-24T02:19:06.057Z,0.00
2018-09-24T02:20:06.086Z,0.00
2018-09-24T02:21:06.106Z,0.00
2018-09-24T02:22:06.134Z,0.00
2018-09-24T02:23:06.157Z,0.00
2018-09-24T02:24:06.181Z,0.00
2018-09-24T02:25:06.209Z,0.00
2018-09-24T02:26:06.233Z,0.00
2018-09-24T02:27:06.259Z,0.00
2018-09-24T02:28:06.284Z,0.00
2018-09-24T02:29:06.309Z,0.00
2018-09-24T02:30:06.334Z,0.00
2018-09-24T02:31:06.359Z,0.00
2018-09-24T02:32:06.385Z,0.00
2018-09-24T02:33:06.407Z,0.00
2018-09-24T02:34:06.435Z,0.00
2018-09-24T02:35:06.460Z,0.00
2018-09-24T02:36:06.483Z,0.00
2018-09-24T02:37:06.511Z,0.00
2018-09-24T02:38:06.536Z,0.00
2018-09-24T02:39:06.560Z,0.00
2018-09-24T02:40:06.586Z,0.00
2018-09-24T02:41:06.609Z,0.00
2018-09-24T02:42:06.636Z,0.00
2018-09-24T02:43:06.659Z,0.00
2018-09-24T02:44:06.684Z,0.00
2018-09-24T02:45:06.711Z,0.00
2018-09-24T02:46:06.734Z,0.00
2018-09-24T02:47:06.761Z,0.00
2018-09-24T02:48:06.784Z,0.00
2018-09-24T02:49:06.809Z,0.00
2018-09-24T02:50:06.834Z,0.00
2018-09-24T02:51:06.859Z,0.00
2018-09-24T02:52:06.885Z,0.00
2018-09-24T02:53:06.911Z,0.00
2018-09-24T02:54:06.936Z,0.00
2018-09-24T02:55:06.961Z,0.00
2018-09-24T02:56:06.985Z,0.00
2018-09-24T02:57:07.010Z,0.00
2018-09-24T02:58:07.033Z,0.00
2018-09-24T02:59:07.058Z,0.00
2018-09-24T03:00:07.086Z,0.00
2018-09-24T03:01:07.119Z,0.00
2018-09-24T03:02:07.133Z,0.00
2018-09-24T03:03:07.159Z,0.00
2018-09-24T03:04:07.185Z,0.00
2018-09-24T03:05:07.209Z,0.00
2018-09-24T03:06:07.234Z,0.00
2018-09-24T03:07:07.259Z,0.00
2018-09-24T03:08:07.282Z,0.00
2018-09-24T03:09:07.310Z,0.00
2018-09-24T03:10:07.335Z,0.00
2018-09-24T03:11:07.361Z,0.00
2018-09-24T03:12:07.380Z,0.00
2018-09-24T03:13:07.406Z,0.00
2018-09-24T03:14:07.432Z,0.00
2018-09-24T03:15:07.457Z,0.00
2018-09-24T03:16:07.482Z,0.00
2018-09-24T03:17:07.509Z,0.00
2018-09-24T03:18:07.532Z,0.00
2018-09-24T03:19:07.559Z,0.00
2018-09-24T03:20:07.584Z,0.00
2018-09-24T03:21:07.608Z,0.00
2018-09-24T03:22:07.631Z,0.00
2018-09-24T03:23:07.656Z,0.00
2018-09-24T03:24:07.682Z,0.00
2018-09-24T03:25:07.706Z,0.00
2018-09-24T03:26:07.814Z,0.00
2018-09-24T03:27:07.757Z,0.00
2018-09-24T03:28:07.782Z,0.00
2018-09-24T03:29:07.807Z,0.00
2018-09-24T03:30:07.829Z,0.00
2018-09-24T03:31:07.858Z,0.00
2018-09-24T03:32:07.879Z,0.00
2018-09-24T03:33:07.909Z,0.00
2018-09-24T03:34:07.932Z,0.00
2018-09-24T03:35:07.955Z,0.00
2018-09-24T03:36:07.979Z,0.00
2018-09-24T03:37:08.006Z,0.00
2018-09-24T03:38:08.028Z,0.00
2018-09-24T03:39:08.053Z,0.00
2018-09-24T03:40:08.077Z,0.00
2018-09-24T03:41:08.103Z,0.00
2018-09-24T03:42:08.129Z,0.00
2018-09-24T03:43:08.154Z,0.00
2018-09-24T03:44:08.177Z,0.00
2018-09-24T03:45:08.203Z,0.00
2018-09-24T03:46:08.228Z,0.00
2018-09-24T03:47:08.269Z,0.00
2018-09-24T03:48:08.276Z,0.00
2018-09-24T03:49:08.302Z,0.00
2018-09-24T03:50:08.327Z,0.00
2018-09-24T03:51:08.351Z,0.00
2018-09-24T03:52:08.383Z,0.00
2018-09-24T03:53:08.401Z,0.00
2018-09-24T03:54:08.426Z,0.00
2018-09-24T03:55:08.453Z,0.00
2018-09-24T03:56:08.478Z,0.00
2018-09-24T03:57:08.502Z,0.00
2018-09-24T03:58:08.525Z,0.00
2018-09-24T03:59:08.686Z,0.00
2018-09-24T04:00:08.575Z,0.00
2018-09-24T04:01:08.599Z,0.00
2018-09-24T04:02:08.626Z,0.00
2018-09-24T04:03:08.654Z,0.00
2018-09-24T04:04:08.675Z,0.00
2018-09-24T04:05:08.698Z,0.00
2018-09-24T04:06:08.723Z,0.00
2018-09-24T04:07:08.748Z,0.00
2018-09-24T04:08:08.774Z,0.00
2018-09-24T04:09:08.799Z,0.00
2018-09-24T04:10:08.870Z,0.00
2018-09-24T04:11:08.863Z,0.00
2018-09-24T04:12:08.872Z,0.00
2018-09-24T04:13:08.895Z,0.00
2018-09-24T04:14:08.921Z,0.00
2018-09-24T04:15:08.945Z,0.00
2018-09-24T04:16:08.971Z,0.00
2018-09-24T04:17:08.996Z,0.00
2018-09-24T04:18:09.021Z,0.00
2018-09-24T04:19:09.046Z,0.00
2018-09-24T04:20:09.074Z,0.00
2018-09-24T04:21:09.111Z,0.00
2018-09-24T04:22:09.139Z,0.00
2018-09-24T04:23:09.145Z,0.00
2018-09-24T04:24:09.168Z,0.00
2018-09-24T04:25:09.210Z,0.00
2018-09-24T04:26:09.244Z,0.00
2018-09-24T04:27:09.242Z,0.00
2018-09-24T04:28:09.268Z,0.00
2018-09-24T04:29:09.290Z,0.00
2018-09-24T04:30:09.316Z,0.00
2018-09-24T04:31:09.340Z,0.00
2018-09-24T04:32:09.366Z,0.00
2018-09-24T04:33:09.388Z,0.00
2018-09-24T04:34:09.415Z,0.00
2018-09-24T04:35:09.439Z,0.00
2018-09-24T04:36:09.461Z,0.00
2018-09-24T04:37:09.488Z,0.00
2018-09-24T04:38:09.512Z,0.00
2018-09-24T04:39:09.538Z,0.00
2018-09-24T04:40:09.562Z,0.00
2018-09-24T04:41:09.585Z,0.00
2018-09-24T04:42:09.611Z,0.00
2018-09-24T04:43:09.840Z,0.00
2018-09-24T04:44:09.659Z,4.00
2018-09-24T04:45:09.682Z,4.00
2018-09-24T04:46:09.709Z,4.00
2018-09-24T04:47:09.732Z,0.00
2018-09-24T04:48:09.763Z,4.00
2018-09-24T04:49:09.868Z,4.00
2018-09-24T04:50:09.807Z,4.00
2018-09-24T04:51:09.831Z,4.00
2018-09-24T04:52:09.853Z,4.00
2018-09-24T04:53:09.895Z,8.00
2018-09-24T04:54:09.903Z,12.00
2018-09-24T04:55:09.929Z,8.00
2018-09-24T04:56:09.951Z,12.00
2018-09-24T04:57:09.975Z,16.00
2018-09-24T04:58:10.002Z,20.00
2018-09-24T04:59:10.027Z,20.00
2018-09-24T05:00:10.049Z,28.00
2018-09-24T05:01:10.074Z,28.00
2018-09-24T05:02:10.101Z,36.00
2018-09-24T05:03:10.123Z,40.00
2018-09-24T05:04:10.146Z,48.00
2018-09-24T05:05:10.170Z,56.00
2018-09-24T05:06:10.202Z,64.00
2018-09-24T05:07:10.219Z,72.00
2018-09-24T05:08:10.245Z,84.00
2018-09-24T05:09:10.268Z,96.00
2018-09-24T05:10:10.299Z,112.00
2018-09-24T05:11:10.317Z,124.00
2018-09-24T05:12:10.343Z,144.00
2018-09-24T05:13:10.365Z,160.00
2018-09-24T05:14:10.392Z,176.00
2018-09-24T05:15:10.414Z,196.00
2018-09-24T05:16:10.470Z,220.00
2018-09-24T05:17:10.464Z,240.00
2018-09-24T05:18:10.487Z,268.00
2018-09-24T05:19:10.511Z,292.00
2018-09-24T05:20:10.540Z,324.00
2018-09-24T05:21:10.560Z,348.00
2018-09-24T05:22:10.585Z,380.00
2018-09-24T05:23:10.612Z,408.00
2018-09-24T05:24:10.633Z,444.00
2018-09-24T05:25:10.660Z,476.00
2018-09-24T05:26:10.682Z,516.00
2018-09-24T05:27:10.755Z,548.00
2018-09-24T05:28:10.732Z,588.00
2018-09-24T05:29:10.756Z,628.00
2018-09-24T05:30:10.781Z,676.00
2018-09-24T05:31:10.804Z,724.00
2018-09-24T05:32:10.829Z,772.00
2018-09-24T05:33:10.852Z,820.00
2018-09-24T05:34:10.878Z,876.00
2018-09-24T05:35:10.900Z,928.00
2018-09-24T05:36:10.969Z,980.00
2018-09-24T05:37:10.951Z,1036.00
2018-09-24T05:38:10.974Z,1092.00
2018-09-24T05:39:11.000Z,1140.00
2018-09-24T05:40:11.023Z,1196.00
2018-09-24T05:41:11.072Z,1248.00
2018-09-24T05:42:11.071Z,1308.00
2018-09-24T05:43:11.095Z,1364.00
2018-09-24T05:44:11.135Z,1424.00
2018-09-24T05:45:11.145Z,1488.00
2018-09-24T05:46:11.170Z,1552.00
2018-09-24T05:47:11.195Z,1612.00
2018-09-24T05:48:11.222Z,1668.00
2018-09-24T05:49:11.243Z,1728.00
2018-09-24T05:50:11.265Z,1796.00
2018-09-24T05:51:11.290Z,1860.00
2018-09-24T05:52:11.316Z,1916.00
2018-09-24T05:53:11.341Z,1964.00
2018-09-24T05:54:11.416Z,2008.00
2018-09-24T05:55:11.389Z,2068.00
2018-09-24T05:56:11.412Z,2120.00
2018-09-24T05:57:11.436Z,2164.00
2018-09-24T05:58:11.462Z,2196.00
2018-09-24T05:59:11.485Z,2220.00
2018-09-24T06:00:11.511Z,2264.00
2018-09-24T06:01:11.535Z,2296.00
2018-09-24T06:02:11.560Z,2312.00
2018-09-24T06:03:11.583Z,2432.00
2018-09-24T06:04:11.606Z,2512.00
2018-09-24T06:05:11.633Z,2532.00
2018-09-24T06:06:11.659Z,2572.00
2018-09-24T06:07:11.682Z,2644.00
2018-09-24T06:08:11.705Z,2672.00
2018-09-24T06:09:11.729Z,2536.00
2018-09-24T06:10:11.756Z,2440.00
2018-09-24T06:11:11.780Z,2512.00
2018-09-24T06:12:11.805Z,2700.00
2018-09-24T06:13:11.827Z,3088.00
2018-09-24T06:14:11.852Z,3192.00
2018-09-24T06:15:11.881Z,3292.00
2018-09-24T06:16:11.903Z,3368.00
2018-09-24T06:17:11.927Z,3436.00
2018-09-24T06:18:11.954Z,3488.00
2018-09-24T06:19:11.980Z,3560.00
2018-09-24T06:20:12.001Z,3672.00
2018-09-24T06:21:12.025Z,3768.00
2018-09-24T06:22:12.049Z,3856.00
2018-09-24T06:23:12.081Z,3948.00
2018-09-24T06:24:12.099Z,4052.00
2018-09-24T06:25:12.123Z,4172.00
2018-09-24T06:26:12.155Z,4652.00
2018-09-24T06:27:12.172Z,5164.00
2018-09-24T06:28:12.197Z,5580.00
2018-09-24T06:29:12.222Z,5408.00
2018-09-24T06:30:12.247Z,5156.00
2018-09-24T06:31:12.272Z,4748.00
2018-09-24T06:32:12.298Z,4652.00
2018-09-24T06:33:12.325Z,4676.00
2018-09-24T06:34:12.382Z,4720.00
2018-09-24T06:35:12.371Z,4808.00
2018-09-24T06:36:12.397Z,4884.00
2018-09-24T06:37:12.423Z,4928.00
2018-09-24T06:38:12.447Z,4944.00
2018-09-24T06:39:12.488Z,4944.00
2018-09-24T06:40:12.497Z,4964.00
2018-09-24T06:41:12.536Z,5008.00
2018-09-24T06:42:12.545Z,5056.00
2018-09-24T06:43:12.574Z,5104.00
2018-09-24T06:44:12.597Z,5140.00
2018-09-24T06:45:12.620Z,5188.00
2018-09-24T06:46:12.645Z,5212.00
2018-09-24T06:47:12.672Z,5224.00
2018-09-24T06:48:12.695Z,5228.00
2018-09-24T06:49:12.722Z,5232.00
2018-09-24T06:50:12.747Z,5216.00
2018-09-24T06:51:12.772Z,5232.00
2018-09-24T06:52:12.795Z,5260.00
2018-09-24T06:53:12.823Z,5336.00
2018-09-24T06:54:12.846Z,5396.00
2018-09-24T06:55:12.876Z,5396.00
2018-09-24T06:56:12.896Z,5368.00
2018-09-24T06:57:12.924Z,5436.00
2018-09-24T06:58:12.950Z,5612.00
2018-09-24T06:59:12.973Z,5868.00
2018-09-24T07:00:12.998Z,5756.00
2018-09-24T07:01:13.024Z,5520.00
2018-09-24T07:02:13.050Z,5504.00
2018-09-24T07:03:13.093Z,5516.00
2018-09-24T07:04:13.101Z,5524.00
2018-09-24T07:05:13.143Z,5524.00
2018-09-24T07:06:13.151Z,5536.00
2018-09-24T07:07:13.176Z,5560.00
2018-09-24T07:08:13.199Z,5604.00
2018-09-24T07:09:13.227Z,5592.00
2018-09-24T07:10:13.250Z,5584.00
2018-09-24T07:11:13.284Z,5592.00
2018-09-24T07:12:13.303Z,5636.00
2018-09-24T07:13:13.329Z,5704.00
2018-09-24T07:14:13.351Z,5812.00
2018-09-24T07:15:13.377Z,5908.00
2018-09-24T07:16:13.404Z,6028.00
2018-09-24T07:17:13.430Z,6156.00
2018-09-24T07:18:13.456Z,6280.00
2018-09-24T07:19:13.481Z,6404.00
2018-09-24T07:20:13.504Z,6524.00
2018-09-24T07:21:13.575Z,6660.00
2018-09-24T07:22:13.557Z,6800.00
2018-09-24T07:23:13.592Z,6892.00
2018-09-24T07:24:13.606Z,6992.00
2018-09-24T07:25:13.632Z,9940.00
2018-09-24T07:26:13.657Z,25664.00
2018-09-24T07:27:13.683Z,45536.00
2018-09-24T07:28:13.721Z,57024.00
2018-09-24T07:29:13.734Z,64352.00
2018-09-24T07:30:13.763Z,72288.00
2018-09-24T07:31:13.790Z,75264.00
2018-09-24T07:32:13.812Z,72736.00
2018-09-24T07:33:13.856Z,73440.00
2018-09-24T07:34:13.877Z,76672.00
2018-09-24T07:35:13.894Z,78080.00
2018-09-24T07:36:13.921Z,76768.00
2018-09-24T07:37:13.946Z,76448.00
2018-09-24T07:38:13.982Z,75488.00
2018-09-24T07:39:14.003Z,76384.00
2018-09-24T07:40:14.030Z,78912.00
2018-09-24T07:41:14.060Z,78848.00
2018-09-24T07:42:14.087Z,78912.00
2018-09-24T07:43:14.233Z,79776.00
2018-09-24T07:44:14.149Z,80992.00
2018-09-24T07:45:14.175Z,79360.00
2018-09-24T07:46:14.208Z,78784.00
2018-09-24T07:47:14.233Z,79232.00
2018-09-24T07:48:14.263Z,78208.00
2018-09-24T07:49:14.294Z,78720.00
2018-09-24T07:50:14.326Z,79520.00
2018-09-24T07:51:14.355Z,79296.00
2018-09-24T07:52:14.383Z,79104.00
2018-09-24T07:53:14.414Z,76960.00
2018-09-24T07:54:14.445Z,76128.00
2018-09-24T07:55:14.485Z,75552.00
2018-09-24T07:56:14.509Z,73216.00
2018-09-24T07:57:14.540Z,76192.00
2018-09-24T07:58:14.572Z,83520.00
2018-09-24T07:59:14.603Z,88960.00
2018-09-24T08:00:14.635Z,88832.00
2018-09-24T08:01:14.672Z,87488.00
2018-09-24T08:02:14.697Z,87040.00
2018-09-24T08:03:14.738Z,86528.00
2018-09-24T08:04:14.762Z,87392.00
2018-09-24T08:05:14.814Z,84256.00
2018-09-24T08:06:14.850Z,84224.00
2018-09-24T08:07:14.889Z,88576.00
2018-09-24T08:08:14.894Z,88832.00
2018-09-24T08:09:15.251Z,89920.00
2018-09-24T08:10:14.961Z,88480.00
2018-09-24T08:11:15.013Z,85664.00
2018-09-24T08:12:15.028Z,88256.00
2018-09-24T08:13:15.141Z,88544.00
2018-09-24T08:14:15.095Z,85344.00
2018-09-24T08:15:15.132Z,83232.00
2018-09-24T08:16:15.164Z,82560.00
2018-09-24T08:17:15.197Z,83776.00
2018-09-24T08:18:15.298Z,86528.00
2018-09-24T08:19:15.268Z,90144.00
2018-09-24T08:20:15.300Z,91040.00
2018-09-24T08:21:15.336Z,91296.00
2018-09-24T08:22:15.369Z,91584.00
2018-09-24T08:23:15.404Z,91936.00
2018-09-24T08:24:15.440Z,90080.00
2018-09-24T08:25:15.477Z,91040.00
2018-09-24T08:26:15.508Z,92800.00
2018-09-24T08:27:15.545Z,91744.00
2018-09-24T08:28:15.579Z,90016.00
2018-09-24T08:29:15.614Z,90656.00
2018-09-24T08:30:15.650Z,92032.00
2018-09-24T08:31:15.684Z,91072.00
2018-09-24T08:32:15.720Z,90976.00
2018-09-24T08:33:15.754Z,90144.00
2018-09-24T08:34:15.791Z,92096.00
2018-09-24T08:35:15.828Z,90624.00
2018-09-24T08:36:15.899Z,90176.00
2018-09-24T08:37:15.898Z,90112.00
2018-09-24T08:38:15.967Z,89568.00
2018-09-24T08:39:15.971Z,88160.00
2018-09-24T08:40:16.004Z,86368.00
2018-09-24T08:41:16.040Z,84960.00
2018-09-24T08:42:16.076Z,84576.00
2018-09-24T08:43:16.111Z,86176.00
2018-09-24T08:44:16.538Z,85600.00
2018-09-24T08:45:16.184Z,88896.00
2018-09-24T08:46:16.219Z,91616.00
2018-09-24T08:47:16.257Z,97952.00
2018-09-24T08:48:16.289Z,99808.00
2018-09-24T08:49:16.331Z,96864.00
2018-09-24T08:50:16.381Z,95424.00
2018-09-24T08:51:16.398Z,94464.00
2018-09-24T08:52:16.442Z,93632.00
2018-09-24T08:53:16.506Z,96064.00
2018-09-24T08:54:16.509Z,100480.00
2018-09-24T08:55:16.545Z,101088.00
2018-09-24T08:56:16.580Z,99488.00
2018-09-24T08:57:16.698Z,99456.00
2018-09-24T08:58:16.654Z,97792.00
2018-09-24T08:59:16.690Z,96512.00
2018-09-24T09:00:16.725Z,98240.00
2018-09-24T09:01:16.759Z,103136.00
2018-09-24T09:02:16.797Z,103040.00
2018-09-24T09:03:16.835Z,102464.00
2018-09-24T09:04:16.870Z,104320.00
2018-09-24T09:05:16.905Z,105664.00
2018-09-24T09:06:16.941Z,102752.00
2018-09-24T09:07:16.978Z,102304.00
2018-09-24T09:08:17.084Z,103872.00
2018-09-24T09:09:17.053Z,105120.00
2018-09-24T09:10:17.089Z,105344.00
2018-09-24T09:11:17.127Z,103168.00
2018-09-24T09:12:17.162Z,104320.00
2018-09-24T09:13:17.197Z,105728.00
2018-09-24T09:14:17.253Z,104960.00
2018-09-24T09:15:17.290Z,104224.00
2018-09-24T09:16:17.365Z,107488.00
2018-09-24T09:17:17.344Z,26560.00
2018-09-24T09:18:17.400Z,105056.00
2018-09-24T09:19:17.417Z,90592.00
2018-09-24T09:20:17.454Z,109632.00
2018-09-24T09:21:17.491Z,107936.00
2018-09-24T09:22:17.531Z,106368.00
2018-09-24T09:23:17.568Z,107584.00
2018-09-24T09:24:17.604Z,108512.00
2018-09-24T09:25:17.638Z,107776.00
2018-09-24T09:26:17.675Z,106272.00
2018-09-24T09:27:17.712Z,105408.00
2018-09-24T09:28:17.751Z,105088.00
2018-09-24T09:29:17.840Z,107648.00
2018-09-24T09:30:17.823Z,109440.00
2018-09-24T09:31:17.861Z,110144.00
2018-09-24T09:32:17.901Z,108832.00
2018-09-24T09:33:17.932Z,108096.00
2018-09-24T09:34:17.971Z,105440.00
2018-09-24T09:35:18.032Z,115328.00
2018-09-24T09:36:18.043Z,94176.00
2018-09-24T09:37:18.079Z,13368.00
2018-09-24T09:38:18.117Z,109888.00
2018-09-24T09:39:18.156Z,111296.00
2018-09-24T09:40:18.189Z,111456.00
2018-09-24T09:41:18.227Z,98336.00
2018-09-24T09:42:18.265Z,34912.00
2018-09-24T09:43:18.300Z,75680.00
2018-09-24T09:44:18.335Z,111456.00
2018-09-24T09:45:18.375Z,112032.00
2018-09-24T09:46:18.409Z,77408.00
2018-09-24T09:47:18.447Z,72192.00
2018-09-24T09:48:18.481Z,59968.00
2018-09-24T09:49:18.519Z,68768.00
2018-09-24T09:50:18.553Z,116064.00
2018-09-24T09:51:18.590Z,113344.00
2018-09-24T09:52:18.626Z,112192.00
2018-09-24T09:53:18.666Z,110784.00
2018-09-24T09:54:18.700Z,111648.00
2018-09-24T09:55:18.733Z,55008.00
2018-09-24T09:56:18.767Z,75200.00
2018-09-24T09:57:18.804Z,103552.00
2018-09-24T09:58:18.841Z,69984.00
2018-09-24T09:59:18.963Z,58816.00
2018-09-24T10:00:18.911Z,17248.00
2018-09-24T10:01:18.948Z,22304.00
2018-09-24T10:02:18.983Z,37056.00
2018-09-24T10:03:19.019Z,59808.00
2018-09-24T10:04:19.054Z,18592.00
2018-09-24T10:05:19.090Z,10156.00
2018-09-24T10:06:19.128Z,8872.00
2018-09-24T10:07:19.160Z,8260.00
2018-09-24T10:08:19.197Z,9920.00
2018-09-24T10:09:19.231Z,20640.00
2018-09-24T10:10:19.264Z,23744.00
2018-09-24T10:11:19.452Z,35488.00
2018-09-24T10:12:19.330Z,23264.00
2018-09-24T10:13:19.366Z,107712.00
2018-09-24T10:14:19.398Z,111840.00
2018-09-24T10:15:19.432Z,94560.00
2018-09-24T10:16:19.464Z,78272.00
2018-09-24T10:17:19.497Z,46336.00
2018-09-24T10:18:19.531Z,106560.00
2018-09-24T10:19:19.564Z,111936.00
2018-09-24T10:20:19.598Z,111360.00
2018-09-24T10:21:19.630Z,107200.00
2018-09-24T10:22:19.665Z,102496.00
2018-09-24T10:23:19.699Z,100032.00
2018-09-24T10:24:19.733Z,100160.00
2018-09-24T10:25:19.766Z,103040.00
2018-09-24T10:26:19.799Z,20864.00
2018-09-24T10:27:19.834Z,21984.00
2018-09-24T10:28:19.868Z,107360.00
2018-09-24T10:29:19.902Z,99744.00
2018-09-24T10:30:19.940Z,107936.00
2018-09-24T10:31:19.972Z,25728.00
2018-09-24T10:32:20.009Z,106624.00
2018-09-24T10:33:20.042Z,106144.00
2018-09-24T10:34:20.078Z,107264.00
2018-09-24T10:35:20.114Z,107168.00
2018-09-24T10:36:20.147Z,12104.00
2018-09-24T10:37:20.185Z,11996.00
2018-09-24T10:38:20.218Z,106848.00
2018-09-24T10:39:20.254Z,25504.00
2018-09-24T10:40:20.289Z,31040.00
2018-09-24T10:41:20.325Z,42464.00
2018-09-24T10:42:20.359Z,49856.00
2018-09-24T10:43:20.395Z,15660.00
2018-09-24T10:44:20.431Z,12148.00
2018-09-24T10:45:20.468Z,11924.00
2018-09-24T10:46:20.504Z,15436.00
2018-09-24T10:47:20.536Z,21408.00
2018-09-24T10:48:20.571Z,11984.00
2018-09-24T10:49:20.604Z,11456.00
2018-09-24T10:50:20.641Z,11236.00
2018-09-24T10:51:20.674Z,9644.00
2018-09-24T10:52:20.707Z,8876.00
2018-09-24T10:53:20.749Z,9024.00
2018-09-24T10:54:20.775Z,10344.00
2018-09-24T10:55:20.809Z,13000.00
2018-09-24T10:56:20.844Z,15684.00
2018-09-24T10:57:21.198Z,16408.00
2018-09-24T10:58:20.910Z,30592.00
2018-09-24T10:59:20.948Z,19808.00
2018-09-24T11:00:20.974Z,25344.00
2018-09-24T11:01:21.005Z,28224.00
2018-09-24T11:02:21.039Z,13204.00
2018-09-24T11:03:21.070Z,10764.00
2018-09-24T11:04:21.099Z,8780.00
2018-09-24T11:05:21.132Z,7772.00
2018-09-24T11:06:21.167Z,7144.00
2018-09-24T11:07:21.199Z,6924.00
2018-09-24T11:08:21.227Z,7244.00
2018-09-24T11:09:21.257Z,8488.00
2018-09-24T11:10:21.322Z,45632.00
2018-09-24T11:11:21.342Z,58688.00
2018-09-24T11:12:21.349Z,96864.00
2018-09-24T11:13:21.396Z,94112.00
2018-09-24T11:14:21.436Z,94688.00
2018-09-24T11:15:21.444Z,93184.00
2018-09-24T11:16:21.523Z,93984.00
2018-09-24T11:17:21.632Z,94080.00
2018-09-24T11:18:21.536Z,89792.00
2018-09-24T11:19:21.568Z,90304.00
2018-09-24T11:20:21.601Z,91552.00
2018-09-24T11:21:21.632Z,92544.00
2018-09-24T11:22:21.762Z,94336.00
2018-09-24T11:23:21.697Z,94592.00
2018-09-24T11:24:21.727Z,95040.00
2018-09-24T11:25:21.760Z,91744.00
2018-09-24T11:27:21.829Z,91744.00
2018-09-24T11:28:21.880Z,93728.00
2018-09-24T11:29:21.956Z,14204.00
2018-09-24T11:30:21.928Z,19648.00
2018-09-24T11:31:21.962Z,88928.00
2018-09-24T11:32:22.002Z,19776.00
2018-09-24T11:33:22.030Z,92416.00
2018-09-24T11:34:22.065Z,20608.00
2018-09-24T11:35:22.100Z,15004.00
2018-09-24T11:36:22.132Z,12880.00
2018-09-24T11:37:22.166Z,43744.00
2018-09-24T11:38:22.203Z,18080.00
2018-09-24T11:39:22.235Z,14400.00
2018-09-24T11:40:22.271Z,17048.00
2018-09-24T11:41:22.302Z,15480.00
2018-09-24T11:42:22.336Z,85536.00
2018-09-24T11:43:22.372Z,68384.00
2018-09-24T11:44:22.405Z,68736.00
2018-09-24T11:45:22.440Z,94944.00
2018-09-24T11:46:22.515Z,91392.00
2018-09-24T11:47:22.507Z,57600.00
2018-09-24T11:48:22.537Z,88608.00
2018-09-24T11:49:22.572Z,15308.00
2018-09-24T11:50:22.605Z,12912.00
2018-09-24T11:51:22.639Z,12544.00
2018-09-24T11:52:22.672Z,18400.00
2018-09-24T11:53:22.707Z,71552.00
2018-09-24T11:54:22.742Z,59264.00
2018-09-24T11:55:22.774Z,26816.00
2018-09-24T11:56:22.815Z,83520.00
2018-09-24T11:57:22.839Z,87808.00
2018-09-24T11:58:22.875Z,91264.00
2018-09-24T11:59:22.910Z,93440.00
2018-09-24T12:00:22.946Z,40832.00
2018-09-24T12:01:22.973Z,14112.00
2018-09-24T12:02:23.040Z,58272.00
2018-09-24T12:03:23.044Z,92384.00
2018-09-24T12:04:23.075Z,90656.00
2018-09-24T12:05:23.107Z,39264.00
2018-09-24T12:06:23.143Z,13496.00
2018-09-24T12:07:23.212Z,12936.00
2018-09-24T12:08:23.207Z,11920.00
2018-09-24T12:09:23.240Z,11872.00
2018-09-24T12:10:23.276Z,68992.00
2018-09-24T12:11:23.308Z,76160.00
2018-09-24T12:12:23.353Z,18112.00
2018-09-24T12:13:23.372Z,18272.00
2018-09-24T12:14:23.453Z,18880.00
2018-09-24T12:15:23.440Z,23360.00
2018-09-24T12:16:23.472Z,22816.00
2018-09-24T12:17:23.503Z,14628.00
2018-09-24T12:18:23.538Z,11204.00
2018-09-24T12:19:23.569Z,9792.00
2018-09-24T12:20:23.603Z,8644.00
2018-09-24T12:21:23.634Z,7192.00
2018-09-24T12:22:23.666Z,5904.00
2018-09-24T12:23:23.697Z,5504.00
2018-09-24T12:24:23.729Z,5436.00